createdAt,value
2022-08-03T00:01:48.591Z,21.38
2022-08-03T00:04:15.038Z,21.35
2022-08-03T00:06:41.539Z,21.35
2022-08-03T00:09:08.083Z,21.32
2022-08-03T00:11:34.932Z,21.28
2022-08-03T00:14:01.730Z,21.26
2022-08-03T00:16:28.365Z,21.28
2022-08-03T00:18:55.365Z,21.26
2022-08-03T00:21:21.918Z,21.24
2022-08-03T00:23:51.516Z,21.22
2022-08-03T00:26:19.374Z,21.24
2022-08-03T00:28:45.850Z,21.26
2022-08-03T00:31:13.431Z,21.26
2022-08-03T00:33:59.407Z,21.23
2022-08-03T00:36:27.186Z,21.16
2022-08-03T00:38:53.747Z,21.14
2022-08-03T00:41:20.263Z,21.09
2022-08-03T00:43:47.531Z,21.03
2022-08-03T00:46:19.053Z,20.97
2022-08-03T00:48:47.357Z,20.94
2022-08-03T00:51:13.935Z,20.95
2022-08-03T00:53:40.833Z,20.91
2022-08-03T00:56:07.378Z,20.93
2022-08-03T00:58:33.835Z,20.93
2022-08-03T01:01:00.566Z,20.91
2022-08-03T01:03:27.189Z,20.86
2022-08-03T01:06:00.497Z,20.82
2022-08-03T01:08:45.656Z,20.79
2022-08-03T01:11:18.138Z,20.79
2022-08-03T01:14:18.354Z,20.69
2022-08-03T01:16:56.956Z,20.67
2022-08-03T01:19:34.644Z,20.67
2022-08-03T01:22:22.858Z,20.65
2022-08-03T01:25:09.149Z,20.60
2022-08-03T01:28:13.327Z,20.60
2022-08-03T01:30:43.317Z,20.56
2022-08-03T01:33:24.442Z,20.51
2022-08-03T01:35:58.477Z,20.49
2022-08-03T01:38:29.385Z,20.46
2022-08-03T01:40:57.091Z,20.47
2022-08-03T01:44:26.507Z,20.42
2022-08-03T01:46:19.989Z,20.42
2022-08-03T01:48:48.296Z,20.40
2022-08-03T01:51:18.550Z,20.38
2022-08-03T01:53:46.810Z,20.36
2022-08-03T01:56:14.637Z,20.30
2022-08-03T01:58:42.162Z,20.30
2022-08-03T02:01:10.186Z,20.31
2022-08-03T02:04:00.193Z,20.28
2022-08-03T02:07:00.305Z,20.20
2022-08-03T02:09:20.851Z,20.18
2022-08-03T02:11:47.978Z,20.17
2022-08-03T02:14:16.114Z,20.14
2022-08-03T02:16:44.762Z,20.09
2022-08-03T02:19:11.513Z,20.06
2022-08-03T02:21:56.286Z,20.07
2022-08-03T02:24:25.342Z,19.99
2022-08-03T02:26:55.286Z,19.96
2022-08-03T02:29:40.405Z,19.94
2022-08-03T02:32:10.515Z,19.90
2022-08-03T02:34:38.185Z,19.89
2022-08-03T02:37:06.050Z,19.88
2022-08-03T02:39:35.513Z,19.89
2022-08-03T02:42:03.249Z,19.91
2022-08-03T02:44:32.918Z,19.90
2022-08-03T02:47:05.043Z,19.88
2022-08-03T02:49:40.478Z,19.85
2022-08-03T02:52:19.706Z,19.88
2022-08-03T02:54:48.816Z,19.87
2022-08-03T02:57:16.203Z,19.86
2022-08-03T02:59:44.696Z,19.83
2022-08-03T03:02:12.348Z,19.78
2022-08-03T03:05:00.505Z,19.77
2022-08-03T03:07:27.103Z,19.74
2022-08-03T03:09:56.420Z,19.70
2022-08-03T03:12:23.668Z,19.66
2022-08-03T03:14:50.526Z,19.63
2022-08-03T03:17:18.670Z,19.63
2022-08-03T03:19:46.031Z,19.60
2022-08-03T03:22:13.367Z,19.54
2022-08-03T03:24:41.658Z,19.52
2022-08-03T03:27:08.732Z,19.50
2022-08-03T03:29:39.185Z,19.47
2022-08-03T03:32:09.214Z,19.46
2022-08-03T03:34:37.248Z,19.43
2022-08-03T03:37:05.112Z,19.40
2022-08-03T03:39:31.988Z,19.40
2022-08-03T03:41:58.586Z,19.37
2022-08-03T03:44:29.137Z,19.36
2022-08-03T03:46:58.474Z,19.34
2022-08-03T03:49:26.138Z,19.29
2022-08-03T03:51:56.426Z,19.29
2022-08-03T03:54:25.510Z,19.28
2022-08-03T03:56:56.160Z,19.29
2022-08-03T03:59:22.679Z,19.28
2022-08-03T04:01:58.923Z,19.27
2022-08-03T04:04:44.201Z,19.25
2022-08-03T04:07:29.120Z,19.23
2022-08-03T04:10:15.120Z,19.25
2022-08-03T04:12:50.285Z,19.23
2022-08-03T04:15:21.269Z,19.21
2022-08-03T04:17:50.276Z,19.19
2022-08-03T04:20:19.961Z,19.21
2022-08-03T04:22:49.649Z,19.21
2022-08-03T04:25:19.387Z,19.18
2022-08-03T04:28:28.279Z,19.15
2022-08-03T04:30:37.632Z,19.15
2022-08-03T04:33:05.929Z,19.14
2022-08-03T04:36:02.222Z,19.15
2022-08-03T04:38:22.581Z,19.16
2022-08-03T04:40:49.301Z,19.15
2022-08-03T04:43:18.664Z,19.16
2022-08-03T04:45:47.869Z,19.17
2022-08-03T04:48:15.306Z,19.20
2022-08-03T04:50:42.814Z,19.19
2022-08-03T04:53:09.417Z,19.19
2022-08-03T04:55:36.530Z,19.20
2022-08-03T04:58:04.361Z,19.21
2022-08-03T05:00:30.909Z,19.23
2022-08-03T05:02:57.442Z,19.26
2022-08-03T05:05:23.978Z,19.29
2022-08-03T05:07:50.699Z,19.27
2022-08-03T05:10:17.570Z,19.27
2022-08-03T05:12:46.000Z,19.30
2022-08-03T05:15:13.055Z,19.34
2022-08-03T05:17:40.017Z,19.34
2022-08-03T05:20:06.975Z,19.37
2022-08-03T05:22:33.568Z,19.44
2022-08-03T05:25:01.758Z,19.43
2022-08-03T05:27:28.329Z,19.40
2022-08-03T05:29:54.816Z,19.39
2022-08-03T05:32:21.505Z,19.36
2022-08-03T05:34:48.021Z,19.40
2022-08-03T05:37:14.665Z,19.42
2022-08-03T05:39:41.141Z,19.48
2022-08-03T05:42:07.933Z,19.51
2022-08-03T05:44:34.463Z,19.55
2022-08-03T05:47:01.047Z,19.69
2022-08-03T05:49:27.656Z,19.84
2022-08-03T05:52:00.285Z,19.92
2022-08-03T05:54:55.297Z,20.01
2022-08-03T05:57:23.564Z,20.11
2022-08-03T05:59:54.001Z,20.24
2022-08-03T06:02:26.417Z,20.34
2022-08-03T06:04:52.932Z,20.55
2022-08-03T06:07:19.382Z,20.72
2022-08-03T06:10:33.803Z,20.98
2022-08-03T06:12:35.911Z,21.36
2022-08-03T06:15:04.405Z,21.56
2022-08-03T06:17:37.342Z,21.53
2022-08-03T06:20:05.727Z,21.30
2022-08-03T06:22:32.178Z,21.18
2022-08-03T06:24:58.918Z,21.01
2022-08-03T06:27:36.998Z,21.01
2022-08-03T06:30:05.100Z,21.00
2022-08-03T06:32:31.627Z,21.01
2022-08-03T06:34:58.057Z,21.09
2022-08-03T06:37:24.616Z,21.16
2022-08-03T06:39:51.064Z,21.22
2022-08-03T06:42:17.840Z,21.28
2022-08-03T06:44:44.555Z,21.31
2022-08-03T06:47:11.426Z,21.30
2022-08-03T06:49:38.275Z,21.26
2022-08-03T06:52:07.013Z,21.31
2022-08-03T06:54:34.126Z,21.41
2022-08-03T06:57:00.863Z,21.46
2022-08-03T07:00:10.828Z,21.46
2022-08-03T07:02:18.922Z,21.56
2022-08-03T07:04:47.501Z,21.53
2022-08-03T07:07:14.090Z,21.45
2022-08-03T07:09:40.526Z,21.39
2022-08-03T07:12:08.419Z,21.40
2022-08-03T07:14:35.069Z,21.42
2022-08-03T07:17:01.538Z,21.52
2022-08-03T07:19:31.114Z,21.64
2022-08-03T07:22:02.221Z,21.83
2022-08-03T07:24:30.762Z,21.92
2022-08-03T07:26:57.341Z,22.03
2022-08-03T07:29:23.833Z,22.08
2022-08-03T07:31:50.274Z,22.02
2022-08-03T07:34:16.835Z,22.08
2022-08-03T07:36:43.277Z,22.20
2022-08-03T07:39:15.806Z,22.36
2022-08-03T07:41:44.442Z,22.36
2022-08-03T07:44:11.006Z,22.42
2022-08-03T07:46:37.651Z,22.51
2022-08-03T07:49:04.140Z,22.55
2022-08-03T07:51:30.704Z,22.59
2022-08-03T07:53:57.758Z,22.66
2022-08-03T07:56:28.028Z,22.79
2022-08-03T07:58:55.574Z,22.91
2022-08-03T08:01:22.781Z,23.08
2022-08-03T08:03:52.706Z,23.14
2022-08-03T08:06:21.421Z,23.20
2022-08-03T08:08:48.112Z,23.32
2022-08-03T08:11:14.992Z,23.42
2022-08-03T08:13:41.437Z,23.45
2022-08-03T08:16:07.931Z,23.57
2022-08-03T08:18:34.537Z,23.68
2022-08-03T08:21:03.210Z,23.73
2022-08-03T08:23:37.879Z,23.86
2022-08-03T08:26:09.587Z,23.99
2022-08-03T08:28:36.059Z,23.94
2022-08-03T08:31:02.614Z,23.99
2022-08-03T08:33:48.058Z,24.13
2022-08-03T08:36:16.147Z,24.20
2022-08-03T08:38:44.825Z,24.33
2022-08-03T08:41:12.669Z,24.41
2022-08-03T08:43:39.409Z,24.42
2022-08-03T08:46:08.417Z,24.39
2022-08-03T08:48:36.427Z,24.45
2022-08-03T08:51:03.328Z,24.42
2022-08-03T08:53:32.811Z,24.45
2022-08-03T08:56:01.073Z,24.59
2022-08-03T08:58:36.904Z,24.61
2022-08-03T09:01:04.208Z,24.70
2022-08-03T09:03:33.532Z,24.74
2022-08-03T09:06:01.289Z,24.87
2022-08-03T09:08:29.461Z,24.93
2022-08-03T09:10:56.086Z,24.94
2022-08-03T09:13:22.785Z,25.01
2022-08-03T09:15:59.840Z,25.14
2022-08-03T09:18:32.536Z,25.26
2022-08-03T09:21:30.668Z,25.12
2022-08-03T09:24:04.681Z,25.08
2022-08-03T09:26:37.491Z,25.09
2022-08-03T09:29:14.553Z,25.10
2022-08-03T09:31:45.931Z,25.19
2022-08-03T09:34:17.441Z,25.35
2022-08-03T09:36:45.647Z,25.46
2022-08-03T09:39:14.779Z,25.53
2022-08-03T09:41:43.004Z,25.64
2022-08-03T09:44:24.680Z,25.74
2022-08-03T09:46:56.610Z,25.94
2022-08-03T09:49:23.847Z,25.95
2022-08-03T09:52:31.642Z,26.01
2022-08-03T09:54:37.403Z,26.12
2022-08-03T09:57:04.259Z,26.20
2022-08-03T09:59:33.354Z,26.30
2022-08-03T10:02:00.681Z,26.29
2022-08-03T10:04:27.791Z,26.37
2022-08-03T10:07:04.946Z,26.40
2022-08-03T10:09:31.486Z,26.48
2022-08-03T10:12:06.692Z,26.63
2022-08-03T10:14:34.074Z,26.70
2022-08-03T10:17:00.641Z,26.78
2022-08-03T10:19:27.168Z,26.78
2022-08-03T10:21:56.860Z,26.82
2022-08-03T10:24:29.822Z,26.93
2022-08-03T10:27:04.649Z,27.01
2022-08-03T10:29:38.440Z,27.15
2022-08-03T10:32:14.595Z,27.19
2022-08-03T10:34:44.664Z,27.14
2022-08-03T10:37:14.584Z,27.15
2022-08-03T10:39:53.435Z,27.20
2022-08-03T10:42:24.616Z,27.19
2022-08-03T10:45:16.539Z,27.36
2022-08-03T10:47:43.519Z,27.37
2022-08-03T10:50:11.087Z,27.52
2022-08-03T10:52:56.993Z,27.56
2022-08-03T10:55:53.037Z,27.64
2022-08-03T10:58:57.060Z,27.70
2022-08-03T11:02:00.835Z,27.80
2022-08-03T11:04:29.772Z,27.80
2022-08-03T11:07:22.921Z,27.93
2022-08-03T11:09:51.813Z,28.07
2022-08-03T11:12:21.290Z,28.16
2022-08-03T11:14:56.351Z,28.23
2022-08-03T11:17:23.089Z,28.32
2022-08-03T11:19:57.521Z,28.41
2022-08-03T11:22:25.405Z,28.52
2022-08-03T11:24:54.073Z,28.42
2022-08-03T11:27:23.106Z,28.38
2022-08-03T11:30:26.523Z,28.58
2022-08-03T11:32:57.737Z,28.65
2022-08-03T11:35:36.534Z,28.71
2022-08-03T11:38:05.966Z,28.71
2022-08-03T11:40:33.767Z,28.80
2022-08-03T11:43:00.333Z,28.85
2022-08-03T11:45:27.023Z,28.90
2022-08-03T11:47:55.432Z,28.99
2022-08-03T11:50:22.562Z,29.01
2022-08-03T11:52:49.786Z,29.09
2022-08-03T11:55:20.425Z,29.14
2022-08-03T11:59:16.851Z,29.27
2022-08-03T12:00:34.263Z,29.19
2022-08-03T12:03:05.476Z,29.27
2022-08-03T12:05:39.837Z,29.31
2022-08-03T12:08:08.212Z,29.28
2022-08-03T12:10:35.458Z,29.37
2022-08-03T12:13:05.943Z,29.39
2022-08-03T12:15:59.354Z,29.32
2022-08-03T12:18:26.099Z,29.37
2022-08-03T12:20:54.404Z,29.47
2022-08-03T12:23:21.072Z,29.59
2022-08-03T12:25:48.176Z,29.76
2022-08-03T12:28:28.279Z,29.90
2022-08-03T12:31:07.420Z,29.99
2022-08-03T12:34:08.242Z,30.02
2022-08-03T12:36:36.543Z,30.00
2022-08-03T12:39:07.007Z,30.07
2022-08-03T12:41:36.513Z,30.09
2022-08-03T12:44:04.774Z,30.13
2022-08-03T12:46:34.456Z,30.10
2022-08-03T12:49:07.904Z,30.21
2022-08-03T12:51:37.468Z,30.21
2022-08-03T12:54:05.198Z,30.30
2022-08-03T12:56:31.717Z,30.34
2022-08-03T12:58:58.201Z,30.29
2022-08-03T13:01:24.770Z,30.43
2022-08-03T13:03:53.640Z,30.51
2022-08-03T13:06:23.681Z,30.59
2022-08-03T13:09:01.412Z,30.60
2022-08-03T13:11:47.556Z,30.54
2022-08-03T13:14:19.565Z,30.59
2022-08-03T13:16:47.086Z,30.64
2022-08-03T13:19:15.657Z,30.73
2022-08-03T13:21:53.689Z,30.74
2022-08-03T13:24:30.476Z,30.84
2022-08-03T13:26:57.924Z,30.77
2022-08-03T13:29:24.360Z,30.57
2022-08-03T13:31:51.544Z,30.54
2022-08-03T13:34:22.927Z,30.67
2022-08-03T13:39:57.914Z,30.80
2022-08-03T13:42:25.405Z,30.95
2022-08-03T13:44:51.953Z,31.04
2022-08-03T13:47:19.430Z,30.94
2022-08-03T13:49:56.966Z,30.80
2022-08-03T13:52:33.580Z,30.92
2022-08-03T13:55:01.025Z,30.92
2022-08-03T13:58:02.872Z,30.86
2022-08-03T14:00:16.123Z,30.90
2022-08-03T14:03:01.912Z,30.91
2022-08-03T14:05:32.124Z,30.96
2022-08-03T14:08:04.202Z,31.08
2022-08-03T14:10:30.954Z,30.97
2022-08-03T14:13:00.253Z,30.95
2022-08-03T14:15:28.555Z,30.81
2022-08-03T14:17:55.769Z,30.87
2022-08-03T14:20:38.458Z,30.96
2022-08-03T14:23:12.693Z,30.90
2022-08-03T14:25:50.327Z,30.75
2022-08-03T14:28:22.410Z,30.62
2022-08-03T14:30:49.618Z,30.49
2022-08-03T14:33:16.148Z,30.39
2022-08-03T14:35:42.760Z,30.36
2022-08-03T14:38:09.324Z,30.41
2022-08-03T14:40:35.888Z,30.56
2022-08-03T14:43:02.658Z,30.65
2022-08-03T14:45:29.158Z,30.75
2022-08-03T14:50:34.121Z,30.88
2022-08-03T14:50:48.323Z,30.99
2022-08-03T14:53:17.656Z,31.09
2022-08-03T14:55:49.762Z,31.08
2022-08-03T14:58:22.816Z,31.26
2022-08-03T15:00:51.440Z,31.32
2022-08-03T15:03:25.822Z,31.27
2022-08-03T15:05:54.019Z,31.22
2022-08-03T15:08:21.603Z,31.35
2022-08-03T15:10:49.211Z,31.49
2022-08-03T15:13:16.916Z,31.56
2022-08-03T15:15:43.545Z,31.50
2022-08-03T15:18:10.130Z,31.58
2022-08-03T15:20:44.444Z,31.62
2022-08-03T15:23:13.679Z,31.46
2022-08-03T15:26:30.239Z,31.59
2022-08-03T15:28:26.646Z,31.41
2022-08-03T15:30:53.178Z,31.49
2022-08-03T15:33:20.185Z,31.54
2022-08-03T15:35:47.686Z,31.61
2022-08-03T15:38:14.676Z,31.70
2022-08-03T15:40:41.608Z,31.72
2022-08-03T15:43:08.270Z,31.76
2022-08-03T15:45:35.316Z,31.87
2022-08-03T15:48:03.069Z,31.95
2022-08-03T15:50:29.589Z,31.85
2022-08-03T15:52:56.601Z,31.65
2022-08-03T15:55:23.277Z,31.55
2022-08-03T15:59:10.431Z,31.49
2022-08-03T16:00:36.430Z,31.53
2022-08-03T16:03:02.929Z,31.43
2022-08-03T16:05:29.473Z,31.51
2022-08-03T16:08:03.814Z,31.55
2022-08-03T16:10:31.644Z,31.72
2022-08-03T16:13:01.012Z,31.79
2022-08-03T16:15:27.927Z,31.84
2022-08-03T16:17:54.839Z,31.74
2022-08-03T16:20:34.443Z,31.74
2022-08-03T16:23:10.763Z,31.91
2022-08-03T16:25:41.507Z,31.85
2022-08-03T16:28:13.724Z,31.95
2022-08-03T16:30:42.524Z,31.88
2022-08-03T16:33:09.199Z,31.91
2022-08-03T16:35:35.871Z,32.05
2022-08-03T16:38:07.851Z,32.23
2022-08-03T16:40:36.357Z,32.32
2022-08-03T16:43:18.094Z,32.39
2022-08-03T16:45:48.746Z,32.78
2022-08-03T16:48:15.591Z,32.98
2022-08-03T16:50:42.311Z,33.11
2022-08-03T16:53:15.500Z,33.35
2022-08-03T16:55:53.946Z,33.46
2022-08-03T16:58:41.861Z,33.62
2022-08-03T17:01:22.098Z,33.72
2022-08-03T17:04:03.309Z,33.82
2022-08-03T17:06:35.309Z,33.88
2022-08-03T17:09:14.450Z,33.94
2022-08-03T17:11:46.804Z,33.99
2022-08-03T17:14:15.797Z,34.05
2022-08-03T17:16:52.559Z,33.95
2022-08-03T17:19:23.741Z,33.62
2022-08-03T17:22:01.446Z,33.37
2022-08-03T17:24:41.578Z,33.25
2022-08-03T17:27:18.618Z,33.12
2022-08-03T17:30:03.813Z,33.12
2022-08-03T17:32:33.602Z,33.13
2022-08-03T17:35:00.729Z,33.23
2022-08-03T17:37:58.144Z,33.05
2022-08-03T17:40:17.651Z,32.84
2022-08-03T17:42:45.721Z,32.91
2022-08-03T17:45:17.605Z,33.24
2022-08-03T17:47:45.458Z,33.52
2022-08-03T17:50:32.010Z,33.66
2022-08-03T17:53:07.196Z,33.29
2022-08-03T17:55:55.335Z,32.82
2022-08-03T17:58:41.841Z,32.49
2022-08-03T18:04:30.116Z,31.87
2022-08-03T18:06:59.314Z,31.60
2022-08-03T18:10:06.875Z,31.39
2022-08-03T18:12:24.920Z,31.29
2022-08-03T18:15:01.197Z,31.19
2022-08-03T18:17:55.987Z,31.07
2022-08-03T18:20:34.812Z,31.01
2022-08-03T18:23:08.724Z,30.92
2022-08-03T18:25:44.884Z,30.82
2022-08-03T18:28:14.402Z,30.66
2022-08-03T18:30:54.688Z,30.53
2022-08-03T18:34:16.797Z,30.48
2022-08-03T18:36:17.970Z,30.42
2022-08-03T18:38:47.554Z,30.35
2022-08-03T18:41:22.179Z,30.28
2022-08-03T18:44:06.791Z,30.22
2022-08-03T18:47:16.106Z,30.08
2022-08-03T18:49:57.386Z,29.96
2022-08-03T18:52:37.648Z,29.83
2022-08-03T18:55:20.561Z,29.67
2022-08-03T18:58:15.713Z,29.57
2022-08-03T19:01:58.559Z,29.54
2022-08-03T19:04:31.977Z,29.44
2022-08-03T19:07:02.645Z,29.39
2022-08-03T19:09:38.028Z,29.32
2022-08-03T19:12:30.561Z,29.26
2022-08-03T19:15:05.438Z,29.16
2022-08-03T19:17:35.986Z,29.09
2022-08-03T19:20:05.998Z,29.04
2022-08-03T19:22:33.392Z,28.97
2022-08-03T19:25:03.915Z,28.90
2022-08-03T19:27:31.338Z,28.80
2022-08-03T19:30:03.081Z,28.71
2022-08-03T19:32:32.435Z,28.62
2022-08-03T19:35:00.929Z,28.47
2022-08-03T19:37:38.103Z,28.43
2022-08-03T19:40:10.287Z,28.37
2022-08-03T19:42:41.106Z,28.29
2022-08-03T19:45:11.232Z,28.23
2022-08-03T19:47:53.047Z,28.23
2022-08-03T19:50:20.609Z,28.18
2022-08-03T19:52:48.541Z,28.12
2022-08-03T19:55:17.228Z,28.08
2022-08-03T19:57:46.882Z,28.00
2022-08-03T20:00:19.447Z,27.93
2022-08-03T20:02:46.270Z,27.90
2022-08-03T20:05:15.697Z,27.82
2022-08-03T20:07:47.470Z,27.72
2022-08-03T20:10:15.389Z,27.62
2022-08-03T20:12:43.806Z,27.52
2022-08-03T20:15:10.799Z,27.43
2022-08-03T20:17:54.778Z,27.37
2022-08-03T20:20:33.038Z,27.28
2022-08-03T20:23:01.893Z,27.23
2022-08-03T20:25:39.315Z,27.15
2022-08-03T20:28:26.831Z,27.06
2022-08-03T20:30:53.677Z,27.06
2022-08-03T20:33:20.219Z,26.99
2022-08-03T20:35:54.607Z,26.91
2022-08-03T20:38:27.339Z,26.87
2022-08-03T20:40:54.297Z,26.85
2022-08-03T20:43:20.802Z,26.75
2022-08-03T20:45:58.457Z,26.66
2022-08-03T20:48:27.058Z,26.57
2022-08-03T20:50:56.523Z,26.54
2022-08-03T20:53:57.053Z,26.48
2022-08-03T20:56:10.184Z,26.40
2022-08-03T20:58:36.951Z,26.33
2022-08-03T21:01:08.038Z,26.26
2022-08-03T21:03:41.149Z,26.19
2022-08-03T21:06:27.715Z,26.14
2022-08-03T21:09:04.014Z,26.08
2022-08-03T21:11:41.927Z,26.04
2022-08-03T21:13:04.223Z,32.24
2022-08-03T21:14:39.056Z,25.98
2022-08-03T21:17:14.361Z,25.90
2022-08-03T21:19:53.327Z,25.85
2022-08-03T21:22:22.456Z,25.77
2022-08-03T21:24:54.261Z,25.72
2022-08-03T21:27:24.191Z,25.70
2022-08-03T21:29:52.981Z,25.65
2022-08-03T21:32:32.530Z,25.60
2022-08-03T21:35:00.285Z,25.57
2022-08-03T21:37:28.495Z,25.53
2022-08-03T21:39:56.069Z,25.50
2022-08-03T21:42:26.490Z,25.47
2022-08-03T21:44:53.781Z,25.49
2022-08-03T21:47:24.845Z,25.43
2022-08-03T21:50:08.840Z,25.37
2022-08-03T21:52:42.124Z,25.32
2022-08-03T21:55:18.178Z,25.27
2022-08-03T21:57:51.787Z,25.22
2022-08-03T22:00:20.964Z,25.15
2022-08-03T22:02:55.551Z,25.11
2022-08-03T22:05:28.156Z,25.07
2022-08-03T22:08:09.419Z,25.01
2022-08-03T22:10:36.867Z,24.97
2022-08-03T22:13:03.527Z,24.91
2022-08-03T22:15:30.587Z,24.89
2022-08-03T22:17:57.511Z,24.86
2022-08-03T22:20:24.339Z,24.82
2022-08-03T22:22:56.123Z,24.79
2022-08-03T22:25:27.380Z,24.76
2022-08-03T22:27:54.853Z,24.70
2022-08-03T22:30:21.552Z,24.66
2022-08-03T22:32:52.776Z,24.64
2022-08-03T22:35:21.305Z,24.57
2022-08-03T22:37:54.202Z,24.54
2022-08-03T22:40:20.823Z,24.51
2022-08-03T22:42:52.195Z,24.49
2022-08-03T22:46:09.954Z,24.44
2022-08-03T22:48:07.537Z,24.39
2022-08-03T22:50:34.956Z,24.35
2022-08-03T22:53:01.567Z,24.30
2022-08-03T22:55:28.172Z,24.25
2022-08-03T22:57:56.024Z,24.21
2022-08-03T23:00:23.479Z,24.18
2022-08-03T23:02:51.599Z,24.13
2022-08-03T23:06:02.510Z,24.09
2022-08-03T23:08:12.310Z,24.03
2022-08-03T23:10:44.871Z,23.99
2022-08-03T23:13:14.455Z,23.94
2022-08-03T23:15:41.439Z,23.90
2022-08-03T23:18:09.418Z,23.86
2022-08-03T23:20:37.788Z,23.82
2022-08-03T23:23:05.099Z,23.78
2022-08-03T23:25:31.808Z,23.76
2022-08-03T23:28:05.005Z,23.70
2022-08-03T23:30:37.007Z,23.66
2022-08-03T23:33:04.336Z,23.61
2022-08-03T23:36:29.898Z,23.55
2022-08-03T23:38:36.853Z,23.47
2022-08-03T23:41:05.047Z,23.42
2022-08-03T23:43:45.120Z,23.38
2022-08-03T23:46:21.219Z,23.34
2022-08-03T23:48:47.782Z,23.32
2022-08-03T23:51:22.422Z,23.26
2022-08-03T23:54:02.151Z,23.25
2022-08-03T23:56:52.790Z,23.22
